Time;durP1;ratioP1;P1;durP2;ratioP2;P2;SDS_P1;SDS_P2;PMS_P1;PMS_P2;Temp;Humidity;BMP_temperature;BMP_pressure;BME280_temperature;BME280_humidity;BME280_pressure;Samples;Min_cycle;Max_cycle;Signal;HPM_P1;HPM_P2
2022/07/24 00:02:04;;;;;;;2.35;1.80;;;;;;;28.94;40.58;99404.53;5069995;28;20128;-58
2022/07/24 00:04:29;;;;;;;2.35;1.80;;;;;;;28.94;40.79;99407.34;5082934;28;20454;-58
2022/07/24 00:06:55;;;;;;;2.17;1.70;;;;;;;28.95;40.71;99405.31;5073613;28;20048;-73
2022/07/24 00:09:20;;;;;;;2.08;1.63;;;;;;;28.95;40.57;99400.47;5067973;28;20045;-73
2022/07/24 00:11:45;;;;;;;2.28;1.75;;;;;;;28.94;40.50;99401.72;5068460;28;20037;-73
2022/07/24 00:14:11;;;;;;;2.72;1.98;;;;;;;28.95;40.72;99402.50;5067501;28;20051;-73
2022/07/24 00:16:37;;;;;;;2.67;1.85;;;;;;;28.97;40.77;99406.47;5079345;28;20446;-73
2022/07/24 00:19:03;;;;;;;2.65;1.92;;;;;;;28.94;40.57;99404.53;5084780;28;20040;-73
2022/07/24 00:21:28;;;;;;;2.70;1.80;;;;;;;28.94;40.78;99407.34;5068012;28;20076;-74
2022/07/24 00:23:53;;;;;;;3.03;1.75;;;;;;;28.95;40.68;99399.69;5070332;28;20132;-58
2022/07/24 00:26:19;;;;;;;2.65;1.85;;;;;;;28.92;40.81;99401.31;5076205;28;20044;-58
2022/07/24 00:28:44;;;;;;;2.38;1.80;;;;;;;28.93;40.78;99404.94;5096977;28;20533;-58
2022/07/24 00:31:10;;;;;;;2.15;1.75;;;;;;;28.95;40.71;99408.13;5099899;28;20135;-59
2022/07/24 00:33:35;;;;;;;2.30;1.80;;;;;;;28.95;40.75;99411.75;5106229;28;20040;-73
2022/07/24 00:36:01;;;;;;;2.30;1.80;;;;;;;28.95;40.78;99405.31;5093978;28;20530;-59
2022/07/24 00:38:26;;;;;;;2.38;1.83;;;;;;;28.95;40.54;99405.31;5089853;28;20105;-59
2022/07/24 00:40:51;;;;;;;3.95;1.92;;;;;;;28.94;40.81;99404.53;5109390;28;20048;-73
2022/07/24 00:43:17;;;;;;;2.22;1.67;;;;;;;28.95;40.73;99414.56;5094437;28;20047;-74
2022/07/24 00:45:44;;;;;;;2.33;1.85;;;;;;;28.94;40.87;99412.97;5096667;28;20039;-74
2022/07/24 00:48:10;;;;;;;2.38;1.80;;;;;;;28.94;40.77;99410.16;5095191;28;20047;-74
2022/07/24 00:50:36;;;;;;;2.20;1.73;;;;;;;28.94;40.88;99410.16;5100787;28;20087;-59
2022/07/24 00:53:03;;;;;;;2.15;1.73;;;;;;;28.94;40.73;99403.72;5089699;28;20491;-59
2022/07/24 00:55:35;;;;;;;2.30;1.63;;;;;;;28.93;40.74;99407.75;5092442;28;20050;-59
2022/07/24 00:58:01;;;;;;;2.30;1.75;;;;;;;28.91;40.75;99408.19;5098752;28;20388;-74
2022/07/24 01:00:27;;;;;;;2.30;1.80;;;;;;;28.91;40.87;99402.56;5097537;28;20038;-74
2022/07/24 01:02:52;;;;;;;2.15;1.80;;;;;;;28.90;40.63;99400.16;5107244;28;20495;-74
2022/07/24 01:05:18;;;;;;;2.08;1.55;;;;;;;28.93;40.95;99402.13;5095007;28;20050;-75
2022/07/24 01:07:44;;;;;;;2.25;1.65;;;;;;;28.92;40.72;99406.97;5096724;28;20508;-72
2022/07/24 01:10:10;;;;;;;2.53;1.80;;;;;;;28.91;40.60;99405.38;5099080;28;20036;-56
2022/07/24 01:12:37;;;;;;;2.50;1.80;;;;;;;28.89;40.76;99402.16;5103114;28;20039;-59
2022/07/24 01:15:04;;;;;;;2.58;1.92;;;;;;;28.90;41.02;99406.56;5099046;28;20545;-74
2022/07/24 01:17:31;;;;;;;2.35;1.80;;;;;;;28.87;40.75;99401.81;5101885;28;20122;-73
2022/07/24 01:19:57;;;;;;;2.38;1.80;;;;;;;28.87;40.96;99403.84;5108170;28;20061;-58
2022/07/24 01:22:24;;;;;;;2.25;1.65;;;;;;;28.87;40.88;99404.63;5082139;28;20086;-58
2022/07/24 01:24:49;;;;;;;2.20;1.63;;;;;;;28.85;40.72;99407.06;5100819;28;20089;-59
2022/07/24 01:27:15;;;;;;;2.60;1.90;;;;;;;28.88;41.18;99403.41;5111404;28;20051;-74
2022/07/24 01:29:41;;;;;;;2.40;1.80;;;;;;;28.88;41.07;99406.22;5108812;28;20419;-73
2022/07/24 01:32:06;;;;;;;2.13;1.65;;;;;;;28.85;40.97;99398.63;5091485;28;20044;-71
2022/07/24 01:34:32;;;;;;;2.25;1.77;;;;;;;28.86;40.84;99405.84;5103680;28;20078;-73
2022/07/24 01:36:57;;;;;;;2.30;1.80;;;;;;;28.87;41.05;99403.84;5099033;28;20100;-58
2022/07/24 01:39:23;;;;;;;2.25;1.67;;;;;;;28.87;40.92;99401.81;5104018;28;20036;-74
2022/07/24 01:41:48;;;;;;;2.30;1.70;;;;;;;28.87;40.92;99396.19;5093189;28;20039;-73
2022/07/24 01:44:13;;;;;;;2.60;1.90;;;;;;;28.88;41.13;99408.25;5091178;28;20376;-73
2022/07/24 01:46:39;;;;;;;2.40;1.90;;;;;;;28.87;41.24;99401.81;5095250;28;20044;-73
2022/07/24 01:49:05;;;;;;;2.72;2.10;;;;;;;28.87;41.10;99395.38;5100374;28;20043;-58
2022/07/24 01:51:30;;;;;;;2.58;1.90;;;;;;;28.88;40.91;99394.16;5097915;28;20072;-59
2022/07/24 01:53:55;;;;;;;2.15;1.70;;;;;;;28.88;41.19;99391.34;5108961;28;20043;-74
2022/07/24 01:56:21;;;;;;;2.20;1.70;;;;;;;28.87;41.30;99387.75;5104839;28;20044;-74
2022/07/24 01:58:46;;;;;;;2.67;2.17;;;;;;;28.90;40.99;99389.69;5102996;28;20089;-59
2022/07/24 02:01:12;;;;;;;2.70;2.08;;;;;;;28.89;40.80;99395.75;5102892;28;20527;-59
2022/07/24 02:03:38;;;;;;;2.60;1.88;;;;;;;28.90;40.94;99391.69;5107270;28;20112;-72
2022/07/24 02:06:04;;;;;;;2.45;1.85;;;;;;;28.89;41.00;99385.28;5110954;28;20055;-74
2022/07/24 02:08:30;;;;;;;2.60;2.05;;;;;;;28.89;41.12;99390.13;5095608;28;20040;-58
2022/07/24 02:10:55;;;;;;;2.25;1.70;;;;;;;28.86;41.04;99386.13;5097489;28;20040;-59
2022/07/24 02:13:20;;;;;;;2.08;1.50;;;;;;;28.88;40.92;99391.34;5092624;28;20047;-73
2022/07/24 02:15:46;;;;;;;2.22;1.67;;;;;;;28.85;40.77;99383.75;5099772;28;20032;-58
2022/07/24 02:18:11;;;;;;;2.40;1.80;;;;;;;28.86;40.86;99390.97;5099369;28;20495;-74
2022/07/24 02:20:37;;;;;;;2.30;1.70;;;;;;;28.84;40.88;99387.78;5093588;28;20050;-58
2022/07/24 02:23:02;;;;;;;2.28;1.77;;;;;;;28.84;40.94;99385.75;5091686;28;20040;-59
2022/07/24 02:25:28;;;;;;;2.22;1.55;;;;;;;28.85;40.62;99381.72;5096069;28;20089;-59
2022/07/24 02:27:53;;;;;;;2.40;1.90;;;;;;;28.85;40.55;99376.09;5096901;28;20039;-58
2022/07/24 02:30:22;;;;;;;2.38;1.80;;;;;;;28.85;40.69;99384.53;5092892;28;20040;-73
2022/07/24 02:32:48;;;;;;;2.42;1.60;;;;;;;28.85;40.60;99384.53;5095081;28;20136;-74
2022/07/24 02:35:13;;;;;;;2.70;2.10;;;;;;;28.82;40.53;99382.59;5105760;28;20520;-58
2022/07/24 02:37:41;;;;;;;2.30;1.80;;;;;;;28.85;40.40;99386.56;5091109;28;20044;-74
2022/07/24 02:40:08;;;;;;;2.28;1.65;;;;;;;28.85;40.49;99384.53;5098918;28;20043;-59
2022/07/24 02:42:35;;;;;;;2.00;1.50;;;;;;;28.85;40.22;99383.75;5101432;28;20524;-58
2022/07/24 02:45:01;;;;;;;2.33;1.80;;;;;;;28.85;40.15;99383.75;5102007;28;20047;-58
2022/07/24 02:47:27;;;;;;;2.30;1.80;;;;;;;28.84;40.38;99371.69;5089081;28;20051;-74
2022/07/24 02:49:52;;;;;;;2.10;1.63;;;;;;;28.85;40.28;99378.91;5092060;28;20051;-58
2022/07/24 02:52:17;;;;;;;1.85;1.40;;;;;;;28.86;40.38;99380.50;5091584;28;20398;-74
2022/07/24 02:54:43;;;;;;;2.20;1.60;;;;;;;28.87;40.06;99384.91;5102948;28;20376;-59
2022/07/24 02:57:08;;;;;;;2.20;1.65;;;;;;;28.86;40.01;99372.03;5090507;28;20040;-59
2022/07/24 02:59:34;;;;;;;2.30;1.70;;;;;;;28.83;40.09;99372.91;5092053;28;20050;-74
2022/07/24 03:01:59;;;;;;;2.28;1.77;;;;;;;28.82;39.95;99379.78;5090063;28;20036;-73
2022/07/24 03:04:24;;;;;;;2.15;1.63;;;;;;;28.87;40.01;99384.13;5088718;28;20028;-74
2022/07/24 03:06:50;;;;;;;2.20;1.67;;;;;;;28.84;40.16;99382.94;5093779;28;20059;-74
2022/07/24 03:09:15;;;;;;;2.08;1.58;;;;;;;28.84;39.98;99387.78;5094030;28;20050;-58
2022/07/24 03:11:41;;;;;;;2.20;1.67;;;;;;;28.82;40.15;99382.59;5073923;28;20044;-59
2022/07/24 03:14:06;;;;;;;2.10;1.70;;;;;;;28.81;40.20;99378.19;5097143;28;20052;-59
2022/07/24 03:16:32;;;;;;;2.33;1.70;;;;;;;28.82;39.89;99381.81;5109867;28;20047;-59
2022/07/24 03:18:57;;;;;;;2.60;1.83;;;;;;;28.85;39.98;99389.38;5091367;28;20577;-73
2022/07/24 03:21:23;;;;;;;2.15;1.55;;;;;;;28.84;39.88;99384.97;5095552;28;20047;-74
2022/07/24 03:23:49;;;;;;;2.72;1.80;;;;;;;28.84;40.09;99382.16;5094162;28;20085;-58
2022/07/24 03:26:14;;;;;;;2.28;1.70;;;;;;;28.79;40.15;99381.44;5089683;28;20423;-59
2022/07/24 03:28:40;;;;;;;2.30;1.70;;;;;;;28.83;40.04;99380.56;5105283;28;20399;-58
2022/07/24 03:31:05;;;;;;;2.65;1.90;;;;;;;28.82;39.86;99385.41;5091063;28;20264;-74
2022/07/24 03:33:31;;;;;;;3.75;1.80;;;;;;;28.82;39.80;99379.00;5098471;28;20048;-58
2022/07/24 03:35:56;;;;;;;2.63;1.90;;;;;;;28.83;39.93;99380.56;5098015;28;20046;-73
2022/07/24 03:38:22;;;;;;;2.28;1.75;;;;;;;28.82;40.22;99374.16;5093789;28;20032;-73
2022/07/24 03:40:47;;;;;;;2.60;1.90;;;;;;;28.81;39.88;99388.66;5087973;28;20555;-73
2022/07/24 03:43:13;;;;;;;2.08;1.63;;;;;;;28.82;39.89;99384.63;5092094;28;20089;-74
2022/07/24 03:45:38;;;;;;;2.20;1.70;;;;;;;28.80;40.00;99387.88;5093051;28;20039;-73
2022/07/24 03:48:04;;;;;;;2.28;1.60;;;;;;;28.78;40.04;99387.47;5089711;28;20036;-74
2022/07/24 03:50:29;;;;;;;2.30;1.60;;;;;;;28.78;39.97;99385.47;5097426;28;20044;-58
2022/07/24 03:52:55;;;;;;;2.10;1.70;;;;;;;28.74;39.95;99387.56;5091156;28;20048;-58
2022/07/24 03:55:20;;;;;;;2.25;1.77;;;;;;;28.76;39.87;99393.56;5098632;28;20122;-72
2022/07/24 03:57:46;;;;;;;2.17;1.70;;;;;;;28.79;40.01;99389.88;5093160;28;20119;-73
2022/07/24 04:00:12;;;;;;;2.10;1.70;;;;;;;28.79;40.01;99400.31;5091236;28;20060;-59
2022/07/24 04:02:38;;;;;;;2.20;1.60;;;;;;;28.78;40.13;99407.19;5097127;28;20519;-74
2022/07/24 04:05:07;;;;;;;2.35;1.75;;;;;;;28.79;39.95;99403.97;5097706;28;20047;-74
2022/07/24 04:07:33;;;;;;;2.15;1.60;;;;;;;28.81;39.78;99395.09;5097032;28;20078;-73
2022/07/24 04:09:58;;;;;;;2.25;1.67;;;;;;;28.79;39.93;99401.16;5093617;28;20155;-74
2022/07/24 04:12:24;;;;;;;2.17;1.70;;;;;;;28.80;40.23;99401.94;5089649;28;20087;-59
2022/07/24 04:14:49;;;;;;;2.30;1.80;;;;;;;28.79;40.13;99403.16;5089499;28;20081;-58
2022/07/24 04:17:15;;;;;;;2.35;1.70;;;;;;;28.78;40.16;99404.38;5095534;28;20032;-59
2022/07/24 04:19:40;;;;;;;2.47;1.80;;;;;;;28.77;39.99;99408.41;5096841;28;20048;-58
2022/07/24 04:22:05;;;;;;;2.20;1.70;;;;;;;28.74;40.39;99412.91;5093011;28;20093;-59
2022/07/24 04:24:31;;;;;;;2.40;1.85;;;;;;;28.77;39.98;99414.03;5106592;28;20475;-58
2022/07/24 04:26:56;;;;;;;2.20;1.60;;;;;;;28.77;40.27;99417.66;5093902;28;20112;-58
2022/07/24 04:29:21;;;;;;;2.30;1.73;;;;;;;28.77;40.49;99414.03;5089791;28;20044;-59
2022/07/24 04:31:47;;;;;;;2.10;1.70;;;;;;;28.77;40.33;99408.41;5090255;28;20044;-58
2022/07/24 04:34:12;;;;;;;2.40;1.80;;;;;;;28.75;40.31;99410.88;5102019;28;20039;-58
2022/07/24 04:36:38;;;;;;;2.35;1.92;;;;;;;28.72;40.32;99411.72;5091692;28;20039;-74
2022/07/24 04:39:03;;;;;;;2.22;1.70;;;;;;;28.72;40.44;99409.72;5068196;28;20086;-74
2022/07/24 04:41:29;;;;;;;2.50;1.92;;;;;;;28.72;40.23;99414.53;5093582;28;20550;-74
2022/07/24 04:43:54;;;;;;;2.40;1.88;;;;;;;28.73;40.54;99418.97;5101060;28;20744;-58
2022/07/24 04:46:20;;;;;;;2.30;1.80;;;;;;;28.72;40.63;99420.16;5093508;28;20051;-73
2022/07/24 04:48:45;;;;;;;2.50;2.10;;;;;;;28.73;40.70;99425.38;5093271;28;20032;-74
2022/07/24 04:51:11;;;;;;;2.13;1.70;;;;;;;28.77;40.42;99425.31;5093467;28;20052;-74
2022/07/24 04:53:37;;;;;;;2.47;1.67;;;;;;;28.75;40.57;99420.13;5096219;28;20036;-59
2022/07/24 04:56:03;;;;;;;2.05;1.63;;;;;;;28.79;40.51;99422.84;5106067;28;20036;-58
2022/07/24 04:58:28;;;;;;;2.47;1.85;;;;;;;28.78;40.67;99424.09;5094842;28;20040;-72
2022/07/24 05:00:53;;;;;;;2.38;1.88;;;;;;;28.77;40.75;99428.13;5092825;28;20499;-58
2022/07/24 05:03:19;;;;;;;2.70;2.00;;;;;;;28.77;40.73;99426.09;5092873;28;20044;-58
2022/07/24 05:05:44;;;;;;;2.50;2.00;;;;;;;28.78;40.60;99421.25;5095248;28;20035;-73
2022/07/24 05:08:10;;;;;;;2.30;1.90;;;;;;;28.79;40.80;99420.88;5105870;28;20075;-74
2022/07/24 05:10:36;;;;;;;2.40;1.80;;;;;;;28.79;40.89;99428.47;5097556;28;20036;-73
2022/07/24 05:13:01;;;;;;;2.50;1.95;;;;;;;28.76;40.68;99426.53;5094894;28;20071;-74
2022/07/24 05:15:27;;;;;;;2.42;1.90;;;;;;;28.80;40.93;99427.28;5089076;28;20036;-73
2022/07/24 05:17:52;;;;;;;2.38;1.90;;;;;;;28.81;40.92;99430.88;5101500;28;20173;-58
2022/07/24 05:20:18;;;;;;;2.40;1.83;;;;;;;28.83;41.04;99422.81;5108845;28;20046;-58
2022/07/24 05:22:44;;;;;;;2.47;1.90;;;;;;;28.84;41.15;99430.03;5101312;28;20502;-58
2022/07/24 05:25:09;;;;;;;2.30;1.70;;;;;;;28.84;40.87;99418.75;5095446;28;20085;-58
2022/07/24 05:27:35;;;;;;;2.38;1.70;;;;;;;28.84;40.90;99428.00;5101876;28;20035;-58
2022/07/24 05:30:01;;;;;;;2.50;2.00;;;;;;;28.82;41.07;99433.28;5104559;28;20032;-73
2022/07/24 05:32:26;;;;;;;2.55;1.98;;;;;;;28.83;40.89;99434.84;5098391;28;20504;-73
2022/07/24 05:34:52;;;;;;;2.20;1.70;;;;;;;28.84;41.10;99430.03;5108017;28;20131;-73
2022/07/24 05:37:17;;;;;;;2.10;1.70;;;;;;;28.85;41.29;99437.25;5109549;28;20040;-73
2022/07/24 05:39:43;;;;;;;2.30;1.80;;;;;;;28.84;41.22;99430.81;5100691;28;20068;-58
2022/07/24 05:42:08;;;;;;;2.53;1.80;;;;;;;28.86;41.22;99430.38;5105139;28;20039;-58
2022/07/24 05:44:33;;;;;;;2.30;1.77;;;;;;;28.84;41.33;99430.81;5095621;28;20040;-59
2022/07/24 05:46:59;;;;;;;2.40;1.90;;;;;;;28.86;41.51;99425.53;5095781;28;20036;-59
2022/07/24 05:49:24;;;;;;;2.33;1.83;;;;;;;28.87;41.14;99424.34;5094137;28;20140;-73
2022/07/24 05:51:50;;;;;;;2.60;1.92;;;;;;;28.87;41.31;99432.78;5103352;28;20526;-58
2022/07/24 05:54:15;;;;;;;2.85;2.05;;;;;;;28.90;41.15;99428.31;5105473;28;20048;-59
2022/07/24 05:56:41;;;;;;;2.50;2.03;;;;;;;28.88;41.50;99419.50;5090645;28;20043;-75
2022/07/24 05:59:06;;;;;;;2.47;1.80;;;;;;;28.89;41.32;99427.50;5093013;28;20027;-75
2022/07/24 06:01:32;;;;;;;2.20;1.70;;;;;;;28.90;41.51;99417.84;5106747;28;20040;-74
2022/07/24 06:03:58;;;;;;;2.30;1.90;;;;;;;28.88;41.60;99417.47;5099574;28;20113;-74
2022/07/24 06:06:24;;;;;;;2.70;2.30;;;;;;;28.88;41.28;99422.31;5090693;28;20143;-59
2022/07/24 06:08:49;;;;;;;2.30;1.80;;;;;;;28.88;41.45;99409.03;5092052;28;20040;-74
2022/07/24 06:11:14;;;;;;;2.20;1.80;;;;;;;28.90;41.61;99415.03;5091976;28;20042;-74
2022/07/24 06:13:40;;;;;;;2.45;2.08;;;;;;;28.90;41.67;99408.59;5094281;28;20044;-59
2022/07/24 06:16:05;;;;;;;2.70;2.10;;;;;;;28.90;41.53;99409.38;5098375;28;20048;-59
2022/07/24 06:18:31;;;;;;;2.35;1.85;;;;;;;28.91;41.41;99418.66;5101859;28;20515;-59
2022/07/24 06:20:56;;;;;;;2.60;2.15;;;;;;;28.92;41.72;99411.78;5076504;28;20447;-74
2022/07/24 06:23:22;;;;;;;2.30;1.98;;;;;;;28.91;41.50;99419.44;5096223;28;20048;-60
2022/07/24 06:25:47;;;;;;;2.35;1.85;;;;;;;28.92;41.53;99412.59;5099139;28;20120;-74
2022/07/24 06:28:13;;;;;;;2.75;2.10;;;;;;;28.93;41.34;99408.53;5094135;28;20044;-74
2022/07/24 06:30:39;;;;;;;2.58;2.03;;;;;;;28.95;41.67;99408.13;5101750;28;20083;-74
2022/07/24 06:33:04;;;;;;;3.95;2.10;;;;;;;28.91;41.65;99411.00;5091441;28;20063;-74
2022/07/24 06:35:32;;;;;;;2.45;1.83;;;;;;;28.89;41.62;99404.19;5095817;28;20154;-74
2022/07/24 06:38:00;;;;;;;2.70;2.05;;;;;;;28.92;41.66;99401.31;5094084;28;20399;-59
2022/07/24 06:40:26;;;;;;;2.50;1.85;;;;;;;28.90;41.79;99400.94;5094980;28;20525;-59
2022/07/24 06:42:52;;;;;;;2.30;1.83;;;;;;;28.93;41.66;99405.72;5090424;28;20538;-58
2022/07/24 06:45:18;;;;;;;2.40;1.95;;;;;;;28.90;41.84;99398.13;5095125;28;20044;-74
2022/07/24 06:47:43;;;;;;;2.63;1.95;;;;;;;28.93;41.75;99399.31;5098558;28;20036;-74
2022/07/24 06:50:11;;;;;;;2.40;1.88;;;;;;;28.90;41.68;99395.31;5106351;28;20043;-59
2022/07/24 06:52:37;;;;;;;2.83;2.20;;;;;;;28.92;41.51;99404.16;5096825;28;20076;-74
2022/07/24 06:55:02;;;;;;;2.60;2.10;;;;;;;28.95;41.75;99405.31;5101753;28;20043;-74
2022/07/24 06:57:28;;;;;;;2.45;2.05;;;;;;;28.94;41.56;99404.53;5096667;28;20095;-74
2022/07/24 06:59:54;;;;;;;2.50;2.00;;;;;;;28.95;41.62;99402.50;5102016;28;20116;-59
2022/07/24 07:02:20;;;;;;;2.30;1.90;;;;;;;28.93;41.66;99394.47;5104994;28;20036;-74
2022/07/24 07:04:46;;;;;;;2.50;2.05;;;;;;;28.92;41.80;99395.69;5089201;28;20540;-74
2022/07/24 07:07:11;;;;;;;2.40;1.85;;;;;;;28.96;41.63;99398.47;5098278;28;20128;-74
2022/07/24 07:09:37;;;;;;;2.65;1.88;;;;;;;28.96;41.53;99398.47;5091874;28;20040;-74
2022/07/24 07:12:03;;;;;;;2.47;2.00;;;;;;;28.96;41.54;99399.25;5092621;28;20044;-75
2022/07/24 07:14:29;;;;;;;2.50;2.00;;;;;;;28.96;41.40;99392.81;5091434;28;20070;-74
2022/07/24 07:16:54;;;;;;;2.80;2.17;;;;;;;28.95;41.55;99394.06;5095685;28;20077;-59
2022/07/24 07:19:19;;;;;;;2.20;1.80;;;;;;;28.97;41.58;99394.41;5105076;28;20039;-59
2022/07/24 07:21:45;;;;;;;2.35;2.00;;;;;;;28.96;41.39;99388.00;5093953;28;20083;-74
2022/07/24 07:24:10;;;;;;;2.78;2.20;;;;;;;28.96;41.63;99388.00;5092769;28;20123;-59
2022/07/24 07:26:36;;;;;;;2.58;2.08;;;;;;;28.96;41.50;99385.16;5096764;28;20056;-59
2022/07/24 07:29:01;;;;;;;2.80;2.10;;;;;;;28.99;41.48;99387.13;5092871;28;20056;-74
2022/07/24 07:31:27;;;;;;;2.78;2.20;;;;;;;29.00;41.51;99391.50;5103302;28;20122;-59
2022/07/24 07:33:53;;;;;;;2.45;1.90;;;;;;;29.02;41.59;99386.25;5099826;28;20453;-59
2022/07/24 07:36:19;;;;;;;2.40;1.88;;;;;;;29.02;41.27;99383.44;5098105;28;20048;-59
2022/07/24 07:38:45;;;;;;;2.78;2.13;;;;;;;29.04;41.50;99383.81;5096305;28;20036;-74
2022/07/24 07:41:10;;;;;;;2.90;2.20;;;;;;;29.04;41.37;99389.44;5098913;28;20130;-75
2022/07/24 07:43:36;;;;;;;2.70;2.15;;;;;;;28.96;41.37;99375.94;5105913;28;20190;-59
2022/07/24 07:46:01;;;;;;;2.85;2.25;;;;;;;29.05;41.21;99385.38;5098751;28;20317;-75
2022/07/24 07:48:28;;;;;;;2.35;1.92;;;;;;;29.02;41.19;99379.84;5098965;28;20442;-74
2022/07/24 07:50:53;;;;;;;2.80;2.15;;;;;;;29.03;41.28;99378.59;5104681;28;20542;-59
2022/07/24 07:53:19;;;;;;;2.33;1.90;;;;;;;29.06;41.27;99378.53;5105041;28;20086;-74
2022/07/24 07:55:48;;;;;;;2.50;2.00;;;;;;;29.08;41.10;99374.47;5105815;28;20415;-74
2022/07/24 07:58:14;;;;;;;2.60;2.20;;;;;;;29.06;41.13;99369.28;5090338;28;20448;-74
2022/07/24 08:00:39;;;;;;;2.80;2.20;;;;;;;29.08;41.14;99375.28;5092421;28;20083;-74
2022/07/24 08:03:05;;;;;;;2.50;2.00;;;;;;;29.07;41.46;99362.41;5100910;28;20081;-75
2022/07/24 08:05:30;;;;;;;2.35;1.95;;;;;;;29.06;41.47;99360.84;5092542;28;20043;-73
2022/07/24 08:07:56;;;;;;;2.50;2.00;;;;;;;29.08;41.28;99363.22;5099848;28;20130;-74
2022/07/24 08:10:21;;;;;;;2.85;2.33;;;;;;;29.10;41.31;99357.97;5108463;28;20047;-73
2022/07/24 08:12:47;;;;;;;2.80;2.13;;;;;;;29.09;41.53;99365.63;5099688;28;20082;-59
2022/07/24 08:15:12;;;;;;;2.50;2.08;;;;;;;29.09;41.41;99357.16;5100314;28;20043;-74
2022/07/24 08:17:38;;;;;;;2.97;2.33;;;;;;;29.10;41.44;99360.78;5106847;28;20040;-74
2022/07/24 08:20:05;;;;;;;2.28;1.83;;;;;;;29.11;41.29;99357.53;5094085;28;20101;-74
2022/07/24 08:22:30;;;;;;;2.60;2.10;;;;;;;29.14;41.17;99355.84;5096177;28;20035;-74
2022/07/24 08:24:55;;;;;;;2.47;1.98;;;;;;;29.11;41.23;99354.69;5098678;28;20044;-74
2022/07/24 08:27:21;;;;;;;2.75;2.20;;;;;;;29.15;41.04;99349.81;5089343;28;20088;-72
2022/07/24 08:29:46;;;;;;;2.35;1.95;;;;;;;29.16;41.08;99347.78;5068340;28;20044;-58
2022/07/24 08:32:12;;;;;;;2.60;2.10;;;;;;;29.18;41.27;99343.28;5068539;28;20040;-74
2022/07/24 08:34:37;;;;;;;2.60;2.15;;;;;;;29.18;41.32;99348.94;5068160;28;20101;-60
2022/07/24 08:37:02;;;;;;;2.47;2.10;;;;;;;29.19;40.94;99341.25;5071729;28;20056;-59
2022/07/24 08:39:28;;;;;;;2.70;2.20;;;;;;;29.19;41.02;99341.25;5069676;28;20048;-74
2022/07/24 08:41:53;;;;;;;2.75;2.25;;;;;;;29.21;41.07;99342.41;5081774;28;20044;-59
2022/07/24 08:44:19;;;;;;;2.30;2.00;;;;;;;29.20;40.95;99331.59;5085443;28;20416;-59
2022/07/24 08:46:44;;;;;;;2.42;2.03;;;;;;;29.19;41.25;99333.59;5071891;28;20048;-74
2022/07/24 08:49:14;;;;;;;2.95;2.35;;;;;;;29.21;41.10;99333.97;5086415;28;20051;-74
2022/07/24 08:51:42;;;;;;;2.50;1.88;;;;;;;29.23;41.02;99328.69;5074302;28;20059;-59
2022/07/24 08:54:09;;;;;;;2.55;2.13;;;;;;;29.24;41.08;99326.69;5079493;28;20084;-59
2022/07/24 08:56:38;;;;;;;2.95;2.28;;;;;;;29.27;41.34;99328.63;5074292;28;20513;-74
2022/07/24 08:59:04;;;;;;;2.72;2.10;;;;;;;29.28;41.06;99321.75;5076860;28;20491;-59
2022/07/24 09:01:29;;;;;;;2.70;2.10;;;;;;;29.30;40.96;99324.94;5070436;28;20048;-74
2022/07/24 09:03:55;;;;;;;2.67;2.20;;;;;;;29.32;41.19;99322.47;5068172;28;20044;-74
2022/07/24 09:06:21;;;;;;;2.50;1.88;;;;;;;29.33;41.15;99315.59;5073064;28;20044;-59
2022/07/24 09:09:02;;;;;;;2.58;2.13;;;;;;;29.31;40.78;99313.22;5077712;28;20101;-74
2022/07/24 09:11:29;;;;;;;2.78;2.20;;;;;;;29.33;40.93;99310.75;5070256;28;20205;-73
2022/07/24 09:16:44;;;;;;;2.90;2.38;;;;;;;29.32;40.95;99299.94;5078116;28;20048;-59
2022/07/24 09:19:09;;;;;;;2.67;2.00;;;;;;;29.34;41.00;99305.91;5073751;28;20029;-59
2022/07/24 09:21:38;;;;;;;2.42;1.98;;;;;;;29.34;40.89;99303.09;5078916;28;20036;-59
2022/07/24 09:24:18;;;;;;;2.72;2.10;;;;;;;29.33;40.92;99302.31;5067686;28;20080;-74
2022/07/24 09:26:51;;;;;;;2.58;1.90;;;;;;;29.36;40.86;99295.00;5068888;28;20151;-74
2022/07/24 09:29:18;;;;;;;2.80;2.13;;;;;;;29.35;40.88;99293.41;5071224;28;20051;-74
2022/07/24 09:31:58;;;;;;;2.40;2.00;;;;;;;29.37;40.85;99290.97;5086056;28;20068;-74
2022/07/24 09:34:26;;;;;;;2.90;2.20;;;;;;;29.38;40.81;99280.50;5071735;28;20045;-59
2022/07/24 09:37:01;;;;;;;2.40;2.05;;;;;;;29.41;40.96;99285.25;5077018;28;20058;-59
2022/07/24 09:39:28;;;;;;;2.70;2.10;;;;;;;29.40;40.61;99278.03;5073065;28;20412;-59
2022/07/24 09:41:55;;;;;;;2.80;2.30;;;;;;;29.43;40.66;99277.13;5073515;28;20553;-59
2022/07/24 09:44:23;;;;;;;2.50;2.00;;;;;;;29.41;40.71;99277.59;5073760;28;20052;-59
2022/07/24 09:47:02;;;;;;;2.70;2.15;;;;;;;29.44;40.46;99273.91;5070545;28;20040;-59
2022/07/24 09:49:29;;;;;;;2.70;2.20;;;;;;;29.43;40.62;99268.69;5074785;28;20083;-74
2022/07/24 09:52:15;;;;;;;2.90;2.17;;;;;;;29.43;40.41;99268.69;5084381;28;20068;-74
2022/07/24 09:54:49;;;;;;;2.42;2.03;;;;;;;29.45;40.35;99261.41;5079134;28;20594;-59
2022/07/24 09:57:26;;;;;;;2.78;2.22;;;;;;;29.46;40.48;99265.81;5083005;28;20048;-59
2022/07/24 09:59:55;;;;;;;2.90;2.28;;;;;;;29.46;40.30;99257.34;5084809;28;20045;-73
2022/07/24 10:02:23;;;;;;;2.67;2.20;;;;;;;29.46;40.54;99259.38;5075642;28;20488;-75
2022/07/24 10:04:51;;;;;;;2.50;2.00;;;;;;;29.46;40.35;99260.16;5075722;28;20130;-59
2022/07/24 10:07:19;;;;;;;2.60;1.98;;;;;;;29.47;40.65;99261.75;5074113;28;20045;-59
2022/07/24 10:09:47;;;;;;;2.55;2.00;;;;;;;29.49;40.57;99253.63;5080582;28;20442;-59
2022/07/24 10:12:21;;;;;;;2.83;2.38;;;;;;;29.50;40.56;99251.63;5072681;28;20040;-59
2022/07/24 10:14:48;;;;;;;2.50;2.10;;;;;;;29.48;40.62;99245.63;5071018;28;20048;-72
2022/07/24 10:17:15;;;;;;;2.97;2.20;;;;;;;29.50;40.24;99234.69;5077576;28;20620;-59
2022/07/24 10:19:45;;;;;;;2.63;2.20;;;;;;;29.51;40.23;99239.94;5075875;28;20058;-59
2022/07/24 10:22:16;;;;;;;2.63;2.10;;;;;;;29.52;40.62;99238.72;5075135;28;20040;-59
2022/07/24 10:24:41;;;;;;;2.80;2.25;;;;;;;29.52;40.34;99235.91;5071953;28;20076;-74
2022/07/24 10:27:19;;;;;;;2.70;2.22;;;;;;;29.53;40.37;99231.06;5078461;28;20079;-74
2022/07/24 10:29:46;;;;;;;2.58;2.15;;;;;;;29.53;40.48;99226.22;5070722;28;20516;-74
2022/07/24 10:32:13;;;;;;;2.60;2.08;;;;;;;29.54;40.26;99232.63;5071210;28;20036;-60
2022/07/24 10:34:47;;;;;;;2.70;2.30;;;;;;;29.54;40.65;99222.16;5079111;28;20053;-59
2022/07/24 10:37:33;;;;;;;2.83;2.25;;;;;;;29.55;40.66;99215.28;5073838;28;20040;-74
2022/07/24 10:40:13;;;;;;;2.38;1.98;;;;;;;29.56;40.64;99211.22;5077852;28;20431;-59
2022/07/24 10:43:06;;;;;;;2.60;2.20;;;;;;;29.55;40.50;99200.41;5071805;28;20059;-72
2022/07/24 10:45:32;;;;;;;;;;;;;;;29.61;40.54;99198.63;5075336;28;20055;-74
2022/07/24 10:47:58;;;;;;;3.10;2.30;;;;;;;29.59;40.30;99199.09;5073619;28;19924;-74
2022/07/24 10:50:43;;;;;;;2.65;2.10;;;;;;;29.57;40.32;99198.72;5071715;28;20048;-74
2022/07/24 10:53:21;;;;;;;2.75;2.25;;;;;;;29.60;40.55;99202.69;5083810;28;20056;-74
2022/07/24 10:55:47;;;;;;;2.90;2.33;;;;;;;29.59;40.48;99195.47;5071190;28;20511;-74
2022/07/24 10:58:16;;;;;;;2.97;2.53;;;;;;;29.61;40.41;99193.00;5069955;28;20049;-59
2022/07/24 11:00:49;;;;;;;2.80;2.20;;;;;;;29.62;40.18;99193.78;5082683;28;20407;-59
2022/07/24 11:03:30;;;;;;;3.00;2.40;;;;;;;29.60;40.45;99189.38;5068922;28;20045;-74
2022/07/24 11:06:07;;;;;;;3.00;2.38;;;;;;;29.58;40.72;99179.81;5068603;28;20044;-59
2022/07/24 11:08:40;;;;;;;2.63;2.15;;;;;;;29.58;40.59;99171.34;5078844;28;20545;-59
2022/07/24 11:11:15;;;;;;;2.70;2.25;;;;;;;29.58;40.69;99163.69;5038201;28;20037;-59
2022/07/24 11:13:43;;;;;;;2.75;2.28;;;;;;;29.62;40.46;99166.38;5074718;28;20894;-73
2022/07/24 11:16:11;;;;;;;3.00;2.40;;;;;;;29.63;40.25;99159.53;5067955;28;20036;-60
2022/07/24 11:18:57;;;;;;;2.65;2.10;;;;;;;29.63;40.58;99156.69;5078223;28;20045;-74
2022/07/24 11:21:43;;;;;;;2.78;2.40;;;;;;;29.66;40.13;99158.66;5072405;28;20040;-59
2022/07/24 11:24:19;;;;;;;2.88;2.30;;;;;;;29.67;40.44;99162.25;5077157;28;20044;-59
2022/07/24 11:27:08;;;;;;;2.67;2.30;;;;;;;29.64;40.43;99146.22;5084203;28;20056;-74
2022/07/24 11:29:38;;;;;;;2.70;2.20;;;;;;;29.69;39.95;99152.13;5065411;28;20135;-72
2022/07/24 11:32:14;;;;;;;2.60;2.15;;;;;;;29.69;40.27;99146.47;5082376;28;20044;-74
2022/07/24 11:34:44;;;;;;;2.50;2.10;;;;;;;29.68;39.97;99135.66;5074273;28;20135;-74
2022/07/24 11:37:09;;;;;;;2.88;2.20;;;;;;;29.69;39.79;99132.38;5070856;28;20044;-74